Terminal Aerodrome Forecast
Issued by NWS

Home | Current Version | Previous Version | Text Only | Print | Product List | Glossary Off
Versions: 1 2 3 4 5 6 7 8 9 10 11 12 13 14 15

000
FTUS43 KABR 191727
TAFMBG
TAF
KMBG 191727Z 1918/2018 33014G21KT P6SM SCT070
     FM200100 33009KT P6SM FEW090
     FM200300 VRB05KT P6SM FEW250=

USA.gov is the U.S. government's official web portal to all federal, state and local government web resources and services.